createdAt,value
2023-03-03T00:00:33.698Z,2.25
2023-03-03T00:01:33.669Z,2.18
2023-03-03T00:02:33.668Z,2.15
2023-03-03T00:03:33.700Z,2.20
2023-03-03T00:04:33.630Z,2.04
2023-03-03T00:05:33.640Z,2.07
2023-03-03T00:06:33.610Z,2.04
2023-03-03T00:07:33.603Z,2.15
2023-03-03T00:08:33.613Z,2.14
2023-03-03T00:09:33.580Z,2.18
2023-03-03T00:10:33.592Z,2.10
2023-03-03T00:11:33.586Z,2.08
2023-03-03T00:12:33.546Z,2.24
2023-03-03T00:13:33.531Z,2.18
2023-03-03T00:14:33.553Z,2.18
2023-03-03T00:15:33.555Z,2.14
2023-03-03T00:16:33.498Z,2.14
2023-03-03T00:17:33.490Z,2.17
2023-03-03T00:18:33.499Z,2.06
2023-03-03T00:19:33.474Z,2.17
2023-03-03T00:20:33.461Z,2.15
2023-03-03T00:21:33.479Z,2.15
2023-03-03T00:22:33.528Z,2.14
2023-03-03T00:23:33.424Z,2.26
2023-03-03T00:24:33.434Z,2.26
2023-03-03T00:25:33.411Z,2.26
2023-03-03T00:26:33.385Z,2.20
2023-03-03T00:27:33.392Z,2.14
2023-03-03T00:28:33.360Z,2.07
2023-03-03T00:29:33.370Z,1.99
2023-03-03T00:30:33.343Z,1.97
2023-03-03T00:31:33.477Z,2.06
2023-03-03T00:32:33.337Z,2.06
2023-03-03T00:33:33.322Z,2.08
2023-03-03T00:34:33.307Z,2.06
2023-03-03T00:35:33.325Z,2.17
2023-03-03T00:36:33.279Z,2.04
2023-03-03T00:37:33.285Z,2.08
2023-03-03T00:38:33.348Z,1.97
2023-03-03T00:39:33.257Z,2.13
2023-03-03T00:40:33.273Z,1.88
2023-03-03T00:41:33.232Z,1.94
2023-03-03T00:42:33.230Z,1.88
2023-03-03T00:43:33.225Z,1.89
2023-03-03T00:44:33.197Z,1.92
2023-03-03T00:45:33.276Z,1.78
2023-03-03T00:46:33.211Z,1.60
2023-03-03T00:47:33.179Z,1.62
2023-03-03T00:48:33.144Z,1.60
2023-03-03T00:49:33.139Z,1.59
2023-03-03T00:50:33.128Z,1.68
2023-03-03T00:51:33.138Z,1.84
2023-03-03T00:52:33.104Z,1.89
2023-03-03T00:53:33.098Z,1.95
2023-03-03T00:54:33.077Z,2.02
2023-03-03T00:55:33.075Z,2.14
2023-03-03T00:56:33.125Z,2.25
2023-03-03T00:57:33.058Z,2.15
2023-03-03T00:58:33.036Z,2.06
2023-03-03T00:59:33.050Z,2.06
2023-03-03T01:00:34.190Z,1.89
2023-03-03T01:01:33.060Z,1.85
2023-03-03T01:02:33.144Z,1.91
2023-03-03T01:03:32.987Z,1.95
2023-03-03T01:04:32.974Z,1.97
2023-03-03T01:05:32.999Z,2.04
2023-03-03T01:06:32.957Z,2.07
2023-03-03T01:07:32.943Z,2.20
2023-03-03T01:08:32.939Z,2.15
2023-03-03T01:09:32.925Z,2.25
2023-03-03T01:10:32.908Z,2.29
2023-03-03T01:11:32.910Z,2.20
2023-03-03T01:12:32.908Z,2.17
2023-03-03T01:13:32.888Z,2.18
2023-03-03T01:14:32.955Z,2.13
2023-03-03T01:15:32.905Z,2.11
2023-03-03T01:16:32.856Z,2.20
2023-03-03T01:17:32.836Z,2.26
2023-03-03T01:18:32.850Z,2.24
2023-03-03T01:19:32.815Z,2.24
2023-03-03T01:20:32.814Z,2.24
2023-03-03T01:21:32.808Z,2.32
2023-03-03T01:22:32.770Z,2.35
2023-03-03T01:23:32.768Z,2.39
2023-03-03T01:24:33.431Z,2.44
2023-03-03T01:25:32.744Z,2.51
2023-03-03T01:26:32.725Z,2.50
2023-03-03T01:27:32.726Z,2.51
2023-03-03T01:28:32.728Z,2.53
2023-03-03T01:29:32.745Z,2.51
2023-03-03T01:30:32.684Z,2.43
2023-03-03T01:31:32.747Z,2.53
2023-03-03T01:32:32.702Z,2.51
2023-03-03T01:33:32.661Z,2.49
2023-03-03T01:34:32.639Z,2.42
2023-03-03T01:35:32.651Z,2.35
2023-03-03T01:36:32.629Z,2.51
2023-03-03T01:37:32.611Z,2.43
2023-03-03T01:38:32.599Z,2.51
2023-03-03T01:39:32.592Z,2.46
2023-03-03T01:40:32.661Z,2.61
2023-03-03T01:41:32.569Z,2.57
2023-03-03T01:42:32.565Z,2.56
2023-03-03T01:43:32.556Z,2.57
2023-03-03T01:44:32.546Z,2.53
2023-03-03T01:45:32.570Z,2.56
2023-03-03T01:46:32.547Z,2.47
2023-03-03T01:47:32.494Z,2.28
2023-03-03T01:48:32.487Z,2.10
2023-03-03T01:49:32.481Z,1.99
2023-03-03T01:50:32.967Z,1.94
2023-03-03T01:51:32.463Z,1.91
2023-03-03T01:52:32.445Z,2.04
2023-03-03T01:53:32.432Z,2.00
2023-03-03T01:54:32.430Z,2.07
2023-03-03T01:55:32.413Z,2.15
2023-03-03T01:56:32.415Z,2.24
2023-03-03T01:57:32.391Z,2.24
2023-03-03T01:58:32.386Z,2.20
2023-03-03T01:59:32.397Z,2.28
2023-03-03T02:00:32.373Z,2.18
2023-03-03T02:01:32.434Z,2.22
2023-03-03T02:02:32.342Z,2.28
2023-03-03T02:03:32.338Z,2.26
2023-03-03T02:04:32.312Z,2.26
2023-03-03T02:05:32.323Z,2.32
2023-03-03T02:06:32.299Z,2.35
2023-03-03T02:07:32.279Z,2.39
2023-03-03T02:08:32.276Z,2.43
2023-03-03T02:09:32.260Z,2.53
2023-03-03T02:10:32.246Z,2.57
2023-03-03T02:11:32.267Z,2.54
2023-03-03T02:12:32.230Z,2.56
2023-03-03T02:13:32.213Z,2.39
2023-03-03T02:14:32.203Z,2.38
2023-03-03T02:15:32.204Z,2.36
2023-03-03T02:16:32.298Z,2.38
2023-03-03T02:17:32.194Z,2.39
2023-03-03T02:18:32.168Z,2.38
2023-03-03T02:19:32.174Z,2.39
2023-03-03T02:20:32.148Z,2.39
2023-03-03T02:21:32.132Z,2.42
2023-03-03T02:22:32.136Z,2.44
2023-03-03T02:23:32.106Z,2.47
2023-03-03T02:24:32.093Z,2.54
2023-03-03T02:25:32.085Z,2.47
2023-03-03T02:26:32.076Z,2.50
2023-03-03T02:27:32.093Z,2.64
2023-03-03T02:28:32.054Z,2.53
2023-03-03T02:29:32.041Z,2.56
2023-03-03T02:30:32.038Z,2.60
2023-03-03T02:31:32.044Z,2.65
2023-03-03T02:32:32.076Z,2.71
2023-03-03T02:33:32.014Z,2.69
2023-03-03T02:34:31.992Z,2.77
2023-03-03T02:35:32.212Z,2.80
2023-03-03T02:36:31.986Z,2.80
2023-03-03T02:37:31.974Z,2.79
2023-03-03T02:38:31.958Z,2.79
2023-03-03T02:39:31.939Z,2.69
2023-03-03T02:40:31.925Z,2.80
2023-03-03T02:41:31.917Z,2.80
2023-03-03T02:42:31.930Z,2.85
2023-03-03T02:43:31.893Z,2.83
2023-03-03T02:44:31.902Z,2.72
2023-03-03T02:45:31.933Z,2.57
2023-03-03T02:46:31.870Z,2.53
2023-03-03T02:47:31.847Z,2.35
2023-03-03T02:48:31.862Z,2.22
2023-03-03T02:49:31.823Z,2.22
2023-03-03T02:50:31.823Z,2.10
2023-03-03T02:51:31.812Z,2.02
2023-03-03T02:52:31.792Z,2.10
2023-03-03T02:53:31.806Z,2.15
2023-03-03T02:54:31.804Z,2.20
2023-03-03T02:55:31.755Z,2.17
2023-03-03T02:56:31.751Z,2.17
2023-03-03T02:57:31.733Z,2.25
2023-03-03T02:58:31.739Z,2.26
2023-03-03T02:59:31.713Z,2.31
2023-03-03T03:00:31.736Z,2.38
2023-03-03T03:01:31.707Z,2.42
2023-03-03T03:02:31.678Z,2.39
2023-03-03T03:03:31.684Z,2.38
2023-03-03T03:04:31.827Z,2.49
2023-03-03T03:05:31.647Z,2.50
2023-03-03T03:06:31.635Z,2.54
2023-03-03T03:07:31.623Z,2.43
2023-03-03T03:08:31.629Z,2.49
2023-03-03T03:09:31.602Z,2.51
2023-03-03T03:10:31.609Z,2.53
2023-03-03T03:11:31.585Z,2.46
2023-03-03T03:12:31.573Z,2.38
2023-03-03T03:13:31.781Z,2.51
2023-03-03T03:14:31.552Z,2.54
2023-03-03T03:15:31.533Z,2.42
2023-03-03T03:16:31.584Z,2.57
2023-03-03T03:17:31.513Z,2.60
2023-03-03T03:18:31.516Z,2.56
2023-03-03T03:19:31.505Z,2.60
2023-03-03T03:20:31.498Z,2.53
2023-03-03T03:21:31.464Z,2.53
2023-03-03T03:22:31.456Z,2.67
2023-03-03T03:23:31.459Z,2.54
2023-03-03T03:24:31.461Z,2.56
2023-03-03T03:25:31.429Z,2.57
2023-03-03T03:26:31.410Z,2.64
2023-03-03T03:27:31.405Z,2.60
2023-03-03T03:28:31.452Z,2.62
2023-03-03T03:29:31.395Z,2.57
2023-03-03T03:30:31.404Z,2.56
2023-03-03T03:31:31.359Z,2.57
2023-03-03T03:32:31.442Z,2.56
2023-03-03T03:33:31.362Z,2.51
2023-03-03T03:34:31.327Z,2.53
2023-03-03T03:35:31.342Z,2.42
2023-03-03T03:36:31.325Z,2.54
2023-03-03T03:37:31.295Z,2.54
2023-03-03T03:38:31.322Z,2.54
2023-03-03T03:39:31.271Z,2.36
2023-03-03T03:40:31.271Z,2.60
2023-03-03T03:41:31.249Z,2.57
2023-03-03T03:42:31.261Z,2.57
2023-03-03T03:43:31.227Z,2.62
2023-03-03T03:44:31.255Z,2.56
2023-03-03T03:45:31.206Z,2.61
2023-03-03T03:46:31.210Z,2.61
2023-03-03T03:47:31.198Z,2.51
2023-03-03T03:48:31.169Z,2.53
2023-03-03T03:49:31.164Z,2.54
2023-03-03T03:50:31.155Z,2.50
2023-03-03T03:51:31.142Z,2.57
2023-03-03T03:52:31.184Z,2.39
2023-03-03T03:53:31.136Z,2.53
2023-03-03T03:54:31.291Z,2.56
2023-03-03T03:55:31.096Z,2.47
2023-03-03T03:56:31.116Z,2.50
2023-03-03T03:57:31.096Z,2.38
2023-03-03T03:58:31.072Z,2.36
2023-03-03T03:59:31.065Z,2.38
2023-03-03T04:00:31.048Z,2.42
2023-03-03T04:01:31.198Z,2.43
2023-03-03T04:02:31.109Z,2.31
2023-03-03T04:03:31.117Z,2.39
2023-03-03T04:04:30.998Z,2.36
2023-03-03T04:05:30.984Z,2.33
2023-03-03T04:06:30.980Z,2.36
2023-03-03T04:07:30.987Z,2.39
2023-03-03T04:08:30.976Z,2.31
2023-03-03T04:09:30.995Z,2.39
2023-03-03T04:10:30.940Z,2.38
2023-03-03T04:11:30.929Z,2.35
2023-03-03T04:12:30.932Z,2.39
2023-03-03T04:13:30.913Z,2.31
2023-03-03T04:14:30.941Z,2.35
2023-03-03T04:15:30.943Z,2.31
2023-03-03T04:16:30.875Z,2.26
2023-03-03T04:17:30.878Z,2.25
2023-03-03T04:18:30.863Z,2.29
2023-03-03T04:19:30.863Z,2.33
2023-03-03T04:20:30.835Z,2.31
2023-03-03T04:21:30.849Z,2.35
2023-03-03T04:22:30.807Z,2.36
2023-03-03T04:23:30.914Z,2.35
2023-03-03T04:24:30.813Z,2.35
2023-03-03T04:25:30.774Z,2.38
2023-03-03T04:26:30.765Z,2.38
2023-03-03T04:27:30.775Z,2.38
2023-03-03T04:28:30.751Z,2.33
2023-03-03T04:29:30.763Z,2.33
2023-03-03T04:30:30.729Z,2.39
2023-03-03T04:31:30.715Z,2.38
2023-03-03T04:32:30.765Z,2.39
2023-03-03T04:33:30.738Z,2.42
2023-03-03T04:34:30.706Z,2.32
2023-03-03T04:35:30.693Z,2.26
2023-03-03T04:36:30.663Z,2.31
2023-03-03T04:37:30.648Z,2.26
2023-03-03T04:38:30.637Z,2.26
2023-03-03T04:39:30.634Z,2.29
2023-03-03T04:40:30.645Z,2.38
2023-03-03T04:41:30.606Z,2.42
2023-03-03T04:42:30.593Z,2.33
2023-03-03T04:43:30.609Z,2.33
2023-03-03T04:44:30.572Z,2.36
2023-03-03T04:45:30.559Z,2.43
2023-03-03T04:46:30.704Z,2.39
2023-03-03T04:47:30.536Z,2.35
2023-03-03T04:48:30.545Z,2.36
2023-03-03T04:49:30.546Z,2.36
2023-03-03T04:50:30.504Z,2.32
2023-03-03T04:51:30.491Z,2.29
2023-03-03T04:52:30.485Z,2.28
2023-03-03T04:53:30.476Z,2.36
2023-03-03T04:54:30.458Z,2.29
2023-03-03T04:55:30.460Z,2.29
2023-03-03T04:56:30.462Z,2.26
2023-03-03T04:57:30.428Z,2.28
2023-03-03T04:58:30.482Z,2.17
2023-03-03T04:59:30.406Z,2.25
2023-03-03T05:00:30.394Z,2.20
2023-03-03T05:01:30.422Z,2.22
2023-03-03T05:02:30.368Z,2.15
2023-03-03T05:03:30.373Z,2.22
2023-03-03T05:04:30.370Z,2.14
2023-03-03T05:05:30.335Z,2.14
2023-03-03T05:06:30.328Z,2.14
2023-03-03T05:07:30.317Z,2.15
2023-03-03T05:08:30.316Z,2.07
2023-03-03T05:09:30.296Z,2.15
2023-03-03T05:10:30.286Z,2.18
2023-03-03T05:11:30.288Z,2.08
2023-03-03T05:12:30.274Z,2.11
2023-03-03T05:13:30.258Z,2.04
2023-03-03T05:14:30.235Z,2.17
2023-03-03T05:15:30.294Z,2.04
2023-03-03T05:16:30.299Z,2.02
2023-03-03T05:17:30.305Z,2.06
2023-03-03T05:18:30.192Z,2.07
2023-03-03T05:19:30.191Z,1.99
2023-03-03T05:20:30.178Z,1.99
2023-03-03T05:21:30.170Z,1.97
2023-03-03T05:22:30.145Z,1.97
2023-03-03T05:23:30.130Z,1.94
2023-03-03T05:24:30.124Z,1.87
2023-03-03T05:25:30.131Z,1.92
2023-03-03T05:26:30.110Z,1.97
2023-03-03T05:27:30.088Z,1.92
2023-03-03T05:28:30.124Z,1.92
2023-03-03T05:29:30.069Z,1.99
2023-03-03T05:30:30.054Z,1.97
2023-03-03T05:31:30.147Z,2.02
2023-03-03T05:32:30.128Z,2.00
2023-03-03T05:33:30.025Z,1.95
2023-03-03T05:34:30.015Z,1.92
2023-03-03T05:35:30.067Z,2.04
2023-03-03T05:36:30.108Z,2.02
2023-03-03T05:37:29.978Z,2.02
2023-03-03T05:38:29.964Z,1.99
2023-03-03T05:39:29.957Z,1.94
2023-03-03T05:40:29.978Z,1.97
2023-03-03T05:41:29.939Z,1.88
2023-03-03T05:42:29.940Z,1.91
2023-03-03T05:43:29.911Z,1.99
2023-03-03T05:44:29.941Z,1.92
2023-03-03T05:45:29.929Z,1.92
2023-03-03T05:46:29.898Z,1.88
2023-03-03T05:47:29.870Z,1.91
2023-03-03T05:48:29.868Z,1.87
2023-03-03T05:49:29.841Z,1.88
2023-03-03T05:50:29.833Z,1.68
2023-03-03T05:51:29.839Z,1.60
2023-03-03T05:52:29.817Z,1.59
2023-03-03T05:53:29.804Z,1.71
2023-03-03T05:54:29.799Z,1.63
2023-03-03T05:55:29.803Z,1.71
2023-03-03T05:56:29.788Z,1.71
2023-03-03T05:57:29.773Z,1.80
2023-03-03T05:58:29.857Z,1.76
2023-03-03T05:59:29.751Z,1.78
2023-03-03T06:00:29.776Z,1.87
2023-03-03T06:01:29.783Z,1.88
2023-03-03T06:02:29.709Z,1.89
2023-03-03T06:03:29.694Z,2.04
2023-03-03T06:04:29.718Z,2.06
2023-03-03T06:05:29.673Z,1.88
2023-03-03T06:06:29.688Z,1.97
2023-03-03T06:07:29.651Z,2.02
2023-03-03T06:08:29.689Z,1.99
2023-03-03T06:09:29.638Z,2.02
2023-03-03T06:10:29.654Z,2.00
2023-03-03T06:11:29.609Z,2.06
2023-03-03T06:12:29.600Z,2.06
2023-03-03T06:13:29.606Z,2.07
2023-03-03T06:14:29.608Z,2.00
2023-03-03T06:15:29.694Z,2.10
2023-03-03T06:16:29.694Z,2.10
2023-03-03T06:18:31.394Z,2.10
2023-03-03T06:19:31.395Z,2.13
2023-03-03T06:20:31.363Z,2.22
2023-03-03T06:21:31.355Z,2.26
2023-03-03T06:22:31.376Z,2.15
2023-03-03T06:23:31.338Z,2.14
2023-03-03T06:24:31.319Z,2.13
2023-03-03T06:25:31.316Z,2.22
2023-03-03T06:26:31.305Z,2.20
2023-03-03T06:27:31.299Z,2.22
2023-03-03T06:28:31.298Z,2.11
2023-03-03T06:29:31.269Z,2.24
2023-03-03T06:30:31.264Z,2.18
2023-03-03T06:31:31.263Z,2.20
2023-03-03T06:32:31.344Z,2.18
2023-03-03T06:33:31.237Z,2.20
2023-03-03T06:34:31.230Z,2.14
2023-03-03T06:35:31.311Z,2.13
2023-03-03T06:36:31.188Z,2.14
2023-03-03T06:37:31.178Z,2.15
2023-03-03T06:38:31.177Z,2.14
2023-03-03T06:39:31.186Z,2.14
2023-03-03T06:40:31.178Z,2.20
2023-03-03T06:41:31.131Z,2.15
2023-03-03T06:42:31.140Z,2.15
2023-03-03T06:43:31.113Z,2.13
2023-03-03T06:44:31.108Z,2.11
2023-03-03T06:45:31.146Z,2.08
2023-03-03T06:46:31.107Z,2.04
2023-03-03T06:47:31.098Z,2.06
2023-03-03T06:48:31.085Z,2.14
2023-03-03T06:49:31.048Z,2.07
2023-03-03T06:50:31.033Z,2.15
2023-03-03T06:51:31.073Z,2.04
2023-03-03T06:52:31.155Z,2.06
2023-03-03T06:53:31.008Z,2.08
2023-03-03T06:54:31.277Z,2.00
2023-03-03T06:55:30.979Z,1.99
2023-03-03T06:56:30.984Z,2.11
2023-03-03T06:57:30.962Z,2.07
2023-03-03T06:58:30.945Z,2.11
2023-03-03T06:59:30.952Z,2.10
2023-03-03T07:00:31.312Z,2.13
2023-03-03T07:01:30.934Z,2.13
2023-03-03T07:02:30.907Z,2.18
2023-03-03T07:03:30.893Z,2.15
2023-03-03T07:04:31.143Z,2.20
2023-03-03T07:05:30.894Z,2.24
2023-03-03T07:06:30.896Z,2.22
2023-03-03T07:07:30.872Z,2.25
2023-03-03T07:08:30.850Z,2.26
2023-03-03T07:09:30.850Z,2.14
2023-03-03T07:10:30.953Z,2.20
2023-03-03T07:11:30.833Z,2.24
2023-03-03T07:12:30.812Z,2.14
2023-03-03T07:13:30.797Z,2.15
2023-03-03T07:14:30.789Z,2.20
2023-03-03T07:15:30.782Z,2.22
2023-03-03T07:16:30.842Z,2.17
2023-03-03T07:17:30.785Z,2.15
2023-03-03T07:18:30.761Z,2.20
2023-03-03T07:19:30.733Z,2.22
2023-03-03T07:20:30.756Z,2.20
2023-03-03T07:21:30.718Z,2.33
2023-03-03T07:22:30.701Z,2.22
2023-03-03T07:23:30.695Z,2.18
2023-03-03T07:24:30.725Z,2.13
2023-03-03T07:25:30.679Z,2.15
2023-03-03T07:26:30.685Z,2.20
2023-03-03T07:27:30.657Z,2.20
2023-03-03T07:28:30.667Z,2.20
2023-03-03T07:29:30.693Z,2.17
2023-03-03T07:30:30.819Z,2.17
2023-03-03T07:31:30.622Z,2.14
2023-03-03T07:32:30.664Z,2.07
2023-03-03T07:33:30.604Z,1.99
2023-03-03T07:34:30.593Z,2.02
2023-03-03T07:35:30.671Z,2.06
2023-03-03T07:36:30.585Z,2.15
2023-03-03T07:37:30.620Z,2.15
2023-03-03T07:38:30.553Z,2.22
2023-03-03T07:39:30.537Z,2.20
2023-03-03T07:40:30.508Z,2.31
2023-03-03T07:41:30.502Z,2.25
2023-03-03T07:42:30.492Z,2.17
2023-03-03T07:43:30.511Z,2.25
2023-03-03T07:44:30.487Z,2.26
2023-03-03T07:45:30.457Z,2.32
2023-03-03T07:46:30.588Z,2.36
2023-03-03T07:47:30.455Z,2.39
2023-03-03T07:48:30.442Z,2.38
2023-03-03T07:49:30.418Z,2.47
2023-03-03T07:50:30.401Z,2.39
2023-03-03T07:51:30.395Z,2.33
2023-03-03T07:52:30.396Z,2.39
2023-03-03T07:53:30.388Z,2.36
2023-03-03T07:54:30.363Z,2.46
2023-03-03T07:55:30.364Z,2.42
2023-03-03T07:56:30.413Z,2.35
2023-03-03T07:57:30.325Z,2.46
2023-03-03T07:58:30.334Z,2.46
2023-03-03T07:59:30.321Z,2.42
2023-03-03T08:00:30.376Z,2.42
2023-03-03T08:01:30.284Z,2.42
2023-03-03T08:02:30.273Z,2.50
2023-03-03T08:03:30.267Z,2.51
2023-03-03T08:04:30.427Z,2.54
2023-03-03T08:05:30.342Z,2.56
2023-03-03T08:06:30.227Z,2.56
2023-03-03T08:07:30.217Z,2.61
2023-03-03T08:08:30.725Z,2.56
2023-03-03T08:09:30.215Z,2.64
2023-03-03T08:10:30.252Z,2.61
2023-03-03T08:11:30.171Z,2.61
2023-03-03T08:12:30.166Z,2.60
2023-03-03T08:13:30.251Z,2.56
2023-03-03T08:14:30.139Z,2.57
2023-03-03T08:15:30.337Z,2.51
2023-03-03T08:16:30.109Z,2.53
2023-03-03T08:17:30.107Z,2.56
2023-03-03T08:18:30.107Z,2.67
2023-03-03T08:19:30.078Z,2.67
2023-03-03T08:20:30.263Z,2.64
2023-03-03T08:21:30.045Z,2.69
2023-03-03T08:22:30.619Z,2.69
2023-03-03T08:23:30.044Z,2.77
2023-03-03T08:24:30.044Z,2.77
2023-03-03T08:25:30.020Z,2.79
2023-03-03T08:26:30.025Z,2.79
2023-03-03T08:27:29.988Z,2.90
2023-03-03T08:28:29.989Z,2.85
2023-03-03T08:29:29.958Z,2.87
2023-03-03T08:30:29.945Z,2.79
2023-03-03T08:31:40.826Z,2.86
2023-03-03T08:32:31.188Z,3.03
2023-03-03T08:33:29.925Z,3.01
2023-03-03T08:34:29.975Z,3.01
2023-03-03T08:35:29.927Z,2.95
2023-03-03T08:36:29.878Z,2.98
2023-03-03T08:37:29.866Z,3.00
2023-03-03T08:38:29.872Z,2.97
2023-03-03T08:39:29.859Z,3.03
2023-03-03T08:40:29.854Z,3.04
2023-03-03T08:41:29.837Z,2.95
2023-03-03T08:42:29.811Z,3.03
2023-03-03T08:43:29.824Z,3.03
2023-03-03T08:44:29.791Z,3.01
2023-03-03T08:45:29.779Z,3.05
2023-03-03T08:46:29.803Z,3.00
2023-03-03T08:47:29.763Z,3.01
2023-03-03T08:48:29.754Z,2.95
2023-03-03T08:49:29.752Z,2.93
2023-03-03T08:50:29.729Z,2.93
2023-03-03T08:51:29.740Z,3.03
2023-03-03T08:52:29.722Z,3.10
2023-03-03T08:53:29.726Z,3.00
2023-03-03T08:54:29.682Z,3.11
2023-03-03T08:55:29.678Z,2.98
2023-03-03T08:56:29.682Z,2.98
2023-03-03T08:57:29.737Z,3.13
2023-03-03T08:58:35.153Z,3.01
2023-03-03T08:59:30.647Z,3.18
2023-03-03T09:00:29.624Z,3.16
2023-03-03T09:01:29.691Z,3.05
2023-03-03T09:02:29.604Z,3.18
2023-03-03T09:03:29.595Z,3.21
2023-03-03T09:04:29.706Z,3.16
2023-03-03T09:05:29.561Z,3.23
2023-03-03T09:06:29.594Z,3.18
2023-03-03T09:07:30.126Z,3.03
2023-03-03T09:08:29.533Z,3.13
2023-03-03T09:09:29.543Z,3.10
2023-03-03T09:10:29.533Z,3.21
2023-03-03T09:11:29.508Z,3.26
2023-03-03T09:12:29.503Z,3.29
2023-03-03T09:13:29.484Z,3.23
2023-03-03T09:14:29.467Z,3.22
2023-03-03T09:15:29.478Z,3.28
2023-03-03T09:16:29.507Z,3.28
2023-03-03T09:17:29.595Z,3.34
2023-03-03T09:18:29.423Z,3.29
2023-03-03T09:19:29.487Z,3.32
2023-03-03T09:20:29.404Z,3.44
2023-03-03T09:21:29.392Z,3.40
2023-03-03T09:22:29.381Z,3.53
2023-03-03T09:23:29.368Z,3.50
2023-03-03T09:24:29.431Z,3.50
2023-03-03T09:25:29.344Z,3.47
2023-03-03T09:26:29.409Z,3.56
2023-03-03T09:27:29.323Z,3.62
2023-03-03T09:28:29.332Z,3.70
2023-03-03T09:29:29.424Z,3.68
2023-03-03T09:30:29.318Z,3.84
2023-03-03T09:31:29.307Z,3.88
2023-03-03T09:32:29.312Z,3.94
2023-03-03T09:33:29.264Z,3.84
2023-03-03T09:34:29.261Z,3.78
2023-03-03T09:35:29.293Z,3.80
2023-03-03T09:36:29.438Z,3.81
2023-03-03T09:37:29.214Z,3.81
2023-03-03T09:38:29.256Z,3.74
2023-03-03T09:39:29.218Z,3.81
2023-03-03T09:40:29.182Z,3.86
2023-03-03T09:41:29.176Z,3.91
2023-03-03T09:42:29.166Z,4.01
2023-03-03T09:43:29.152Z,4.04
2023-03-03T09:44:29.154Z,4.12
2023-03-03T09:45:29.147Z,4.17
2023-03-03T09:46:29.190Z,4.13
2023-03-03T09:47:29.108Z,4.22
2023-03-03T09:48:29.093Z,4.42
2023-03-03T09:49:29.102Z,4.48
2023-03-03T09:50:29.194Z,4.49
2023-03-03T09:51:29.083Z,4.56
2023-03-03T09:52:29.047Z,4.55
2023-03-03T09:53:29.048Z,4.63
2023-03-03T09:54:29.045Z,4.74
2023-03-03T09:55:29.016Z,4.70
2023-03-03T09:56:29.023Z,4.80
2023-03-03T09:57:29.019Z,4.86
2023-03-03T09:58:28.985Z,5.00
2023-03-03T09:59:28.992Z,5.08
2023-03-03T10:00:29.005Z,5.18
2023-03-03T10:01:28.964Z,5.26
2023-03-03T10:02:28.942Z,5.23
2023-03-03T10:03:28.976Z,5.17
2023-03-03T10:04:28.959Z,5.17
2023-03-03T10:05:28.922Z,5.07
2023-03-03T10:06:28.904Z,4.89
2023-03-03T10:07:29.634Z,4.78
2023-03-03T10:08:31.202Z,4.82
2023-03-03T10:09:29.167Z,4.75
2023-03-03T10:10:28.853Z,4.67
2023-03-03T10:11:28.843Z,4.71
2023-03-03T10:12:28.829Z,4.74
2023-03-03T10:13:28.824Z,4.78
2023-03-03T10:14:29.158Z,4.84
2023-03-03T10:15:28.833Z,4.92
2023-03-03T10:16:28.854Z,4.96
2023-03-03T10:17:28.779Z,5.02
2023-03-03T10:18:28.790Z,4.97
2023-03-03T10:19:28.773Z,4.99
2023-03-03T10:20:34.787Z,5.07
2023-03-03T10:21:29.725Z,5.15
2023-03-03T10:22:28.769Z,5.14
2023-03-03T10:23:28.730Z,5.28
2023-03-03T10:24:28.709Z,5.21
2023-03-03T10:25:28.690Z,5.18
2023-03-03T10:26:42.146Z,5.14
2023-03-03T10:27:29.665Z,5.10
2023-03-03T10:28:28.659Z,5.04
2023-03-03T10:29:30.726Z,5.15
2023-03-03T10:30:39.864Z,5.18
2023-03-03T10:31:29.728Z,5.41
2023-03-03T10:32:28.835Z,5.46
2023-03-03T10:33:28.900Z,5.51
2023-03-03T10:34:28.588Z,5.41
2023-03-03T10:35:28.608Z,5.56
2023-03-03T10:36:30.466Z,5.51
2023-03-03T10:37:28.581Z,5.56
2023-03-03T10:38:28.547Z,5.56
2023-03-03T10:39:28.544Z,5.69
2023-03-03T10:40:28.636Z,5.64
2023-03-03T10:41:28.516Z,5.72
2023-03-03T10:42:28.690Z,5.71
2023-03-03T10:43:32.250Z,5.72
2023-03-03T10:44:28.480Z,5.75
2023-03-03T10:45:28.527Z,5.84
2023-03-03T10:46:28.472Z,5.69
2023-03-03T10:47:28.642Z,5.71
2023-03-03T10:48:28.480Z,5.69
2023-03-03T10:49:28.444Z,5.69
2023-03-03T10:50:28.425Z,5.62
2023-03-03T10:51:28.408Z,5.56
2023-03-03T10:52:28.442Z,5.54
2023-03-03T10:53:28.394Z,5.46
2023-03-03T10:54:28.452Z,5.39
2023-03-03T10:55:28.355Z,5.41
2023-03-03T10:56:28.345Z,5.39
2023-03-03T10:57:28.356Z,5.43
2023-03-03T10:58:28.425Z,5.38
2023-03-03T10:59:29.292Z,5.39
2023-03-03T11:00:28.303Z,5.38
2023-03-03T11:01:28.446Z,5.33
2023-03-03T11:02:28.349Z,5.43
2023-03-03T11:03:28.282Z,5.46
2023-03-03T11:04:28.331Z,5.39
2023-03-03T11:05:28.246Z,5.43
2023-03-03T11:06:28.362Z,5.47
2023-03-03T11:07:28.227Z,5.56
2023-03-03T11:08:28.383Z,5.61
2023-03-03T11:09:28.204Z,5.71
2023-03-03T11:10:28.214Z,5.68
2023-03-03T11:11:28.180Z,5.62
2023-03-03T11:12:28.177Z,5.61
2023-03-03T11:13:28.174Z,5.53
2023-03-03T11:14:28.183Z,5.46
2023-03-03T11:15:28.143Z,5.47
2023-03-03T11:16:28.264Z,5.54
2023-03-03T11:17:28.127Z,5.47
2023-03-03T11:18:28.104Z,5.57
2023-03-03T11:19:28.179Z,5.56
2023-03-03T11:20:28.105Z,5.48
2023-03-03T11:21:28.086Z,5.47
2023-03-03T11:22:28.075Z,5.48
2023-03-03T11:23:28.048Z,5.56
2023-03-03T11:24:28.220Z,5.64
2023-03-03T11:25:28.028Z,5.61
2023-03-03T11:26:28.034Z,5.64
2023-03-03T11:27:28.004Z,5.69
2023-03-03T11:28:27.995Z,5.57
2023-03-03T11:29:28.014Z,5.66
2023-03-03T11:30:28.614Z,5.68
2023-03-03T11:31:30.015Z,5.76
2023-03-03T11:32:27.975Z,5.71
2023-03-03T11:33:27.946Z,5.66
2023-03-03T11:34:27.932Z,5.64
2023-03-03T11:35:27.970Z,5.65
2023-03-03T11:36:27.938Z,5.62
2023-03-03T11:37:27.894Z,5.62
2023-03-03T11:38:27.891Z,5.69
2023-03-03T11:39:27.874Z,5.68
2023-03-03T11:40:27.866Z,5.61
2023-03-03T11:41:27.876Z,5.65
2023-03-03T11:42:27.838Z,5.50
2023-03-03T11:43:36.517Z,5.54
2023-03-03T11:44:28.830Z,5.64
2023-03-03T11:45:27.826Z,5.53
2023-03-03T11:46:27.820Z,5.53
2023-03-03T11:47:29.708Z,5.65
2023-03-03T11:48:27.775Z,5.46
2023-03-03T11:49:27.770Z,5.64
2023-03-03T11:50:27.757Z,5.57
2023-03-03T11:51:28.218Z,5.68
2023-03-03T11:52:27.767Z,5.69
2023-03-03T11:53:27.725Z,5.72
2023-03-03T11:54:27.710Z,5.65
2023-03-03T11:55:27.705Z,5.68
2023-03-03T11:56:27.686Z,5.71
2023-03-03T11:57:27.691Z,5.72
2023-03-03T11:58:27.669Z,5.79
2023-03-03T11:59:27.656Z,5.83
2023-03-03T12:00:27.640Z,5.86
2023-03-03T12:01:27.803Z,5.87
2023-03-03T12:02:27.669Z,6.01
2023-03-03T12:03:27.654Z,6.05
2023-03-03T12:04:27.597Z,5.94
2023-03-03T12:05:27.598Z,5.97
2023-03-03T12:06:27.575Z,5.94
2023-03-03T12:07:27.577Z,5.98
2023-03-03T12:08:27.570Z,5.98
2023-03-03T12:09:27.539Z,5.91
2023-03-03T12:10:27.531Z,5.86
2023-03-03T12:11:27.551Z,5.94
2023-03-03T12:12:27.540Z,5.84
2023-03-03T12:13:27.497Z,5.86
2023-03-03T12:14:27.481Z,5.76
2023-03-03T12:15:27.511Z,5.75
2023-03-03T12:16:27.463Z,5.66
2023-03-03T12:17:27.448Z,5.64
2023-03-03T12:18:34.506Z,5.59
2023-03-03T12:19:27.439Z,5.62
2023-03-03T12:20:27.487Z,5.68
2023-03-03T12:21:27.437Z,5.64
2023-03-03T12:22:27.518Z,5.82
2023-03-03T12:23:27.387Z,5.90
2023-03-03T12:24:27.406Z,5.86
2023-03-03T12:25:27.368Z,5.84
2023-03-03T12:26:27.367Z,5.93
2023-03-03T12:27:27.342Z,5.94
2023-03-03T12:28:27.330Z,6.04
2023-03-03T12:29:27.333Z,6.05
2023-03-03T12:30:27.320Z,6.04
2023-03-03T12:31:27.363Z,6.02
2023-03-03T12:32:27.375Z,6.07
2023-03-03T12:33:27.293Z,6.14
2023-03-03T12:34:27.268Z,6.19
2023-03-03T12:35:27.269Z,6.30
2023-03-03T12:36:27.259Z,6.33
2023-03-03T12:37:27.259Z,6.41
2023-03-03T12:38:27.275Z,6.42
2023-03-03T12:39:34.704Z,6.46
2023-03-03T12:40:28.215Z,6.64
2023-03-03T12:41:27.453Z,6.70
2023-03-03T12:42:27.197Z,6.70
2023-03-03T12:43:27.169Z,6.75
2023-03-03T12:44:27.158Z,6.75
2023-03-03T12:45:27.152Z,6.75
2023-03-03T12:46:28.952Z,6.70
2023-03-03T12:47:27.121Z,6.57
2023-03-03T12:48:27.115Z,6.42
2023-03-03T12:49:28.199Z,6.22
2023-03-03T12:50:27.115Z,6.17
2023-03-03T12:51:27.091Z,6.04
2023-03-03T12:52:27.071Z,6.02
2023-03-03T12:53:27.070Z,5.94
2023-03-03T12:54:27.050Z,5.90
2023-03-03T12:55:27.039Z,5.89
2023-03-03T12:56:27.282Z,5.83
2023-03-03T12:57:27.016Z,5.91
2023-03-03T12:58:27.005Z,5.93
2023-03-03T12:59:27.000Z,5.89
2023-03-03T13:00:27.056Z,6.04
2023-03-03T13:01:26.999Z,6.02
2023-03-03T13:02:26.962Z,5.97
2023-03-03T13:03:31.891Z,6.01
2023-03-03T13:04:28.031Z,6.05
2023-03-03T13:05:26.924Z,6.08
2023-03-03T13:06:26.939Z,6.09
2023-03-03T13:07:26.902Z,6.08
2023-03-03T13:08:26.925Z,6.11
2023-03-03T13:09:26.881Z,6.14
2023-03-03T13:10:26.965Z,6.22
2023-03-03T13:11:26.873Z,6.20
2023-03-03T13:12:26.886Z,6.38
2023-03-03T13:13:26.839Z,6.31
2023-03-03T13:14:26.830Z,6.35
2023-03-03T13:15:32.252Z,6.35
2023-03-03T13:16:40.268Z,6.38
2023-03-03T13:17:27.850Z,6.42
2023-03-03T13:18:26.787Z,6.36
2023-03-03T13:19:26.777Z,6.38